Terminal Aerodrome Forecast
Issued by NWS

Home | Current Version | Previous Version | Text Only | Print | Product List | Glossary On
Versions: 1 2 3 4 5 6 7 8 9 10 11 12 13 14 15 16
000
FTUS45 KBOU 202329
TAFBJC
TAF
KBJC 202329Z 2100/2124 01010KT P6SM FEW100 BKN220
     FM210200 30007KT P6SM FEW100 BKN220
     FM211300 VRB05KT P6SM FEW140 BKN220
     FM211700 02008KT P6SM FEW100 BKN220=

USA.gov is the U.S. government's official web portal to all federal, state and local government web resources and services.